createdAt,value
2023-08-31T00:00:33.368Z,8.20
2023-08-31T00:01:33.347Z,8.70
2023-08-31T00:02:33.360Z,7.80
2023-08-31T00:03:33.417Z,8.60
2023-08-31T00:04:33.310Z,8.20
2023-08-31T00:05:33.266Z,8.10
2023-08-31T00:06:33.242Z,8.70
2023-08-31T00:07:33.233Z,9.00
2023-08-31T00:08:33.194Z,9.20
2023-08-31T00:09:33.168Z,9.50
2023-08-31T00:10:33.146Z,8.10
2023-08-31T00:11:33.126Z,7.30
2023-08-31T00:12:33.101Z,7.70
2023-08-31T00:13:33.075Z,8.80
2023-08-31T00:14:33.057Z,9.90
2023-08-31T00:15:33.053Z,8.80
2023-08-31T00:16:33.013Z,7.50
2023-08-31T00:17:33.029Z,7.50
2023-08-31T00:18:32.974Z,10.10
2023-08-31T00:19:32.940Z,7.70
2023-08-31T00:20:32.922Z,8.10
2023-08-31T00:21:32.915Z,9.00
2023-08-31T00:22:32.872Z,9.40
2023-08-31T00:23:32.878Z,7.50
2023-08-31T00:24:32.929Z,8.40
2023-08-31T00:25:32.805Z,8.60
2023-08-31T00:26:32.792Z,7.60
2023-08-31T00:27:32.769Z,7.80
2023-08-31T00:28:32.737Z,9.10
2023-08-31T00:29:32.711Z,9.90
2023-08-31T00:30:32.693Z,8.20
2023-08-31T00:31:32.669Z,9.40
2023-08-31T00:32:32.684Z,8.10
2023-08-31T00:33:32.622Z,10.00
2023-08-31T00:34:32.602Z,9.30
2023-08-31T00:35:32.574Z,7.10
2023-08-31T00:36:32.574Z,9.90
2023-08-31T00:37:32.533Z,8.30
2023-08-31T00:38:32.515Z,8.40
2023-08-31T00:39:32.511Z,9.00
2023-08-31T00:40:32.477Z,9.40
2023-08-31T00:41:32.444Z,8.00
2023-08-31T00:42:32.423Z,7.90
2023-08-31T00:43:32.399Z,7.70
2023-08-31T00:44:32.390Z,13.50
2023-08-31T00:45:32.351Z,12.70
2023-08-31T00:46:32.372Z,8.60
2023-08-31T00:47:32.336Z,9.00
2023-08-31T00:48:32.293Z,8.70
2023-08-31T00:49:32.268Z,11.40
2023-08-31T00:50:32.240Z,8.30
2023-08-31T00:51:32.219Z,8.80
2023-08-31T00:52:32.214Z,7.70
2023-08-31T00:53:32.184Z,11.30
2023-08-31T00:54:32.147Z,10.50
2023-08-31T00:55:32.144Z,12.40
2023-08-31T00:56:32.103Z,9.40
2023-08-31T00:57:32.078Z,10.70
2023-08-31T00:58:32.061Z,12.70
2023-08-31T00:59:32.035Z,13.20
2023-08-31T01:00:32.019Z,8.20
2023-08-31T01:01:32.118Z,12.50
2023-08-31T01:03:32.079Z,7.60
2023-08-31T01:04:31.926Z,9.10
2023-08-31T01:05:31.903Z,9.20
2023-08-31T01:06:31.883Z,10.80
2023-08-31T01:07:31.867Z,8.40
2023-08-31T01:08:31.895Z,7.90
2023-08-31T01:09:31.817Z,8.50
2023-08-31T01:10:31.797Z,9.80
2023-08-31T01:11:31.793Z,11.10
2023-08-31T01:12:31.764Z,9.70
2023-08-31T01:13:31.722Z,8.60
2023-08-31T01:14:31.701Z,8.50
2023-08-31T01:15:31.681Z,8.20
2023-08-31T01:16:31.717Z,8.50
2023-08-31T01:17:31.672Z,9.20
2023-08-31T01:18:31.610Z,8.70
2023-08-31T01:19:31.586Z,8.30
2023-08-31T01:20:31.571Z,10.70
2023-08-31T01:21:31.536Z,12.10
2023-08-31T01:22:31.520Z,9.90
2023-08-31T01:23:31.493Z,9.10
2023-08-31T01:24:31.474Z,10.00
2023-08-31T01:25:31.454Z,9.20
2023-08-31T01:26:31.452Z,8.60
2023-08-31T01:27:31.433Z,8.80
2023-08-31T01:28:31.384Z,7.90
2023-08-31T01:29:31.362Z,11.10
2023-08-31T01:30:31.338Z,8.90
2023-08-31T01:31:31.369Z,7.10
2023-08-31T01:32:31.292Z,9.80
2023-08-31T01:33:31.271Z,8.80
2023-08-31T01:34:31.250Z,8.10
2023-08-31T01:35:31.219Z,9.20
2023-08-31T01:36:31.209Z,10.10
2023-08-31T01:37:31.172Z,10.00
2023-08-31T01:38:31.168Z,9.70
2023-08-31T01:39:31.138Z,10.50
2023-08-31T01:40:31.110Z,8.70
2023-08-31T01:41:31.096Z,8.80
2023-08-31T01:42:31.065Z,9.00
2023-08-31T01:43:31.066Z,8.30
2023-08-31T01:44:31.019Z,8.10
2023-08-31T01:45:30.997Z,9.50
2023-08-31T01:46:30.979Z,9.80
2023-08-31T01:47:30.993Z,7.90
2023-08-31T01:48:30.937Z,8.50
2023-08-31T01:49:30.916Z,9.10
2023-08-31T01:50:30.888Z,7.70
2023-08-31T01:51:30.867Z,7.20
2023-08-31T01:52:30.840Z,8.60
2023-08-31T01:53:30.816Z,8.70
2023-08-31T01:54:30.794Z,9.30
2023-08-31T01:55:30.776Z,8.30
2023-08-31T01:56:30.750Z,6.70
2023-08-31T01:57:30.726Z,10.10
2023-08-31T01:58:30.712Z,6.50
2023-08-31T01:59:30.701Z,8.10
2023-08-31T02:00:30.657Z,9.40
2023-08-31T02:01:30.684Z,9.10
2023-08-31T02:02:30.738Z,7.70
2023-08-31T02:03:30.589Z,7.60
2023-08-31T02:04:30.573Z,7.50
2023-08-31T02:05:30.546Z,9.50
2023-08-31T02:06:30.524Z,8.00
2023-08-31T02:07:30.502Z,10.00
2023-08-31T02:08:30.491Z,8.10
2023-08-31T02:09:30.467Z,7.00
2023-08-31T02:10:30.455Z,7.50
2023-08-31T02:11:30.412Z,8.00
2023-08-31T02:12:30.389Z,8.50
2023-08-31T02:13:30.362Z,7.80
2023-08-31T02:14:30.345Z,8.70
2023-08-31T02:15:30.397Z,7.40
2023-08-31T02:16:30.304Z,7.80
2023-08-31T02:17:30.304Z,8.50
2023-08-31T02:18:30.248Z,8.30
2023-08-31T02:19:30.227Z,7.90
2023-08-31T02:20:30.208Z,6.90
2023-08-31T02:21:30.190Z,8.40
2023-08-31T02:22:30.158Z,6.80
2023-08-31T02:23:30.140Z,9.50
2023-08-31T02:24:30.113Z,8.70
2023-08-31T02:25:30.111Z,7.20
2023-08-31T02:26:30.074Z,7.50
2023-08-31T02:27:30.046Z,7.40
2023-08-31T02:28:30.038Z,8.00
2023-08-31T02:29:30.007Z,8.40
2023-08-31T02:30:29.984Z,7.90
2023-08-31T02:31:30.074Z,6.80
2023-08-31T02:32:29.982Z,8.70
2023-08-31T02:33:29.907Z,6.60
2023-08-31T02:34:29.887Z,7.70
2023-08-31T02:35:29.862Z,9.90
2023-08-31T02:36:29.844Z,7.50
2023-08-31T02:37:29.816Z,8.40
2023-08-31T02:38:29.800Z,8.30
2023-08-31T02:39:29.771Z,7.10
2023-08-31T02:40:29.756Z,8.10
2023-08-31T02:41:29.733Z,7.10
2023-08-31T02:42:29.704Z,8.40
2023-08-31T02:43:29.689Z,6.50
2023-08-31T02:44:29.670Z,8.80
2023-08-31T02:45:29.638Z,6.10
2023-08-31T02:46:29.647Z,7.70
2023-08-31T02:47:29.711Z,8.60
2023-08-31T02:48:29.702Z,8.00
2023-08-31T02:49:29.549Z,7.40
2023-08-31T02:50:29.537Z,8.70
2023-08-31T02:51:29.502Z,9.60
2023-08-31T02:52:29.485Z,8.10
2023-08-31T02:53:29.461Z,7.80
2023-08-31T02:54:29.429Z,8.40
2023-08-31T02:55:29.407Z,9.40
2023-08-31T02:56:29.403Z,7.20
2023-08-31T02:57:29.371Z,7.30
2023-08-31T02:58:29.335Z,9.60
2023-08-31T02:59:29.320Z,8.40
2023-08-31T03:00:29.437Z,7.70
2023-08-31T03:01:29.274Z,9.00
2023-08-31T03:02:29.326Z,10.40
2023-08-31T03:03:29.251Z,9.30
2023-08-31T03:04:29.206Z,7.30
2023-08-31T03:05:29.184Z,8.30
2023-08-31T03:06:29.160Z,8.80
2023-08-31T03:07:29.141Z,8.40
2023-08-31T03:08:29.121Z,7.20
2023-08-31T03:09:29.100Z,8.30
2023-08-31T03:10:29.068Z,9.00
2023-08-31T03:11:29.053Z,9.20
2023-08-31T03:12:29.012Z,9.30
2023-08-31T03:13:28.998Z,8.90
2023-08-31T03:14:28.982Z,8.70
2023-08-31T03:15:28.948Z,10.10
2023-08-31T03:16:29.006Z,7.10
2023-08-31T03:17:28.938Z,8.10
2023-08-31T03:18:28.901Z,9.00
2023-08-31T03:19:28.891Z,8.70
2023-08-31T03:20:28.840Z,8.50
2023-08-31T03:21:28.816Z,9.50
2023-08-31T03:22:28.802Z,9.90
2023-08-31T03:23:28.765Z,8.20
2023-08-31T03:24:28.741Z,7.70
2023-08-31T03:25:28.752Z,9.00
2023-08-31T03:26:28.708Z,10.00
2023-08-31T03:27:28.682Z,12.40
2023-08-31T03:28:28.660Z,11.80
2023-08-31T03:29:28.636Z,10.00
2023-08-31T03:30:28.658Z,10.50
2023-08-31T03:31:28.592Z,8.80
2023-08-31T03:32:28.606Z,8.80
2023-08-31T03:33:28.643Z,11.20
2023-08-31T03:34:28.524Z,10.90
2023-08-31T03:35:28.527Z,9.70
2023-08-31T03:36:28.489Z,10.20
2023-08-31T03:37:28.448Z,9.30
2023-08-31T03:38:28.437Z,10.00
2023-08-31T03:39:28.411Z,8.80
2023-08-31T03:40:28.386Z,10.60
2023-08-31T03:41:28.361Z,9.20
2023-08-31T03:42:28.339Z,11.00
2023-08-31T03:43:28.318Z,9.50
2023-08-31T03:44:28.295Z,9.00
2023-08-31T03:45:28.283Z,9.30
2023-08-31T03:46:28.310Z,11.10
2023-08-31T03:47:28.231Z,9.80
2023-08-31T03:48:28.192Z,10.70
2023-08-31T03:49:28.181Z,13.80
2023-08-31T03:50:28.152Z,9.80
2023-08-31T03:51:28.243Z,10.90
2023-08-31T03:52:28.103Z,9.20
2023-08-31T03:53:28.089Z,8.90
2023-08-31T03:54:28.061Z,8.80
2023-08-31T03:55:28.037Z,9.70
2023-08-31T03:56:28.012Z,11.60
2023-08-31T03:57:27.989Z,11.40
2023-08-31T03:58:27.963Z,10.30
2023-08-31T03:59:27.942Z,9.80
2023-08-31T04:00:27.920Z,8.90
2023-08-31T04:01:27.927Z,9.90
2023-08-31T04:02:27.901Z,9.80
2023-08-31T04:03:27.962Z,8.50
2023-08-31T04:04:27.834Z,9.30
2023-08-31T04:05:27.803Z,10.60
2023-08-31T04:06:27.780Z,10.50
2023-08-31T04:07:27.785Z,10.60
2023-08-31T04:08:27.739Z,11.40
2023-08-31T04:09:27.718Z,10.30
2023-08-31T04:10:27.690Z,9.60
2023-08-31T04:11:27.666Z,8.90
2023-08-31T04:12:27.643Z,10.80
2023-08-31T04:13:27.619Z,10.20
2023-08-31T04:14:27.596Z,11.90
2023-08-31T04:15:27.579Z,10.30
2023-08-31T04:16:27.604Z,9.60
2023-08-31T04:17:27.546Z,9.80
2023-08-31T04:18:27.588Z,13.20
2023-08-31T04:19:27.484Z,11.70
2023-08-31T04:20:27.461Z,11.00
2023-08-31T04:21:27.435Z,11.20
2023-08-31T04:22:27.408Z,11.90
2023-08-31T04:23:27.411Z,11.90
2023-08-31T04:24:27.362Z,9.60
2023-08-31T04:25:27.349Z,10.30
2023-08-31T04:26:27.324Z,11.40
2023-08-31T04:27:27.301Z,13.50
2023-08-31T04:28:27.270Z,11.60
2023-08-31T04:29:27.260Z,10.50
2023-08-31T04:30:27.236Z,12.60
2023-08-31T04:31:27.255Z,13.10
2023-08-31T04:32:27.198Z,12.10
2023-08-31T04:33:27.166Z,9.70
2023-08-31T04:34:27.139Z,11.70
2023-08-31T04:35:27.120Z,10.20
2023-08-31T04:36:27.094Z,11.90
2023-08-31T04:37:27.076Z,11.20
2023-08-31T04:38:27.046Z,11.30
2023-08-31T04:39:27.046Z,12.80
2023-08-31T04:40:26.998Z,14.10
2023-08-31T04:41:26.971Z,11.50
2023-08-31T04:42:26.948Z,11.60
2023-08-31T04:43:26.930Z,12.70
2023-08-31T04:44:26.915Z,12.60
2023-08-31T04:45:26.899Z,12.50
2023-08-31T04:46:26.864Z,12.00
2023-08-31T04:47:26.894Z,14.50
2023-08-31T04:48:26.820Z,12.60
2023-08-31T04:49:26.794Z,12.80
2023-08-31T04:50:26.783Z,14.30
2023-08-31T04:51:26.756Z,12.30
2023-08-31T04:52:26.721Z,13.40
2023-08-31T04:53:26.712Z,13.60
2023-08-31T04:54:26.673Z,14.00
2023-08-31T04:55:26.674Z,14.10
2023-08-31T04:56:26.628Z,18.90
2023-08-31T04:57:26.609Z,15.20
2023-08-31T04:58:26.584Z,14.60
2023-08-31T04:59:26.610Z,14.20
2023-08-31T05:00:26.550Z,15.20
2023-08-31T05:01:26.564Z,14.60
2023-08-31T05:02:26.505Z,13.80
2023-08-31T05:03:26.478Z,15.80
2023-08-31T05:04:26.443Z,14.70
2023-08-31T05:05:26.440Z,16.80
2023-08-31T05:06:26.398Z,15.50
2023-08-31T05:07:26.381Z,14.60
2023-08-31T05:08:26.351Z,14.50
2023-08-31T05:09:26.342Z,15.20
2023-08-31T05:10:26.303Z,17.10
2023-08-31T05:11:26.307Z,15.20
2023-08-31T05:12:26.262Z,16.40
2023-08-31T05:13:26.246Z,15.70
2023-08-31T05:14:26.210Z,15.80
2023-08-31T05:15:26.190Z,16.30
2023-08-31T05:16:26.228Z,16.70
2023-08-31T05:17:26.163Z,15.70
2023-08-31T05:18:26.121Z,17.70
2023-08-31T05:19:27.779Z,16.80
2023-08-31T05:20:26.092Z,16.40
2023-08-31T05:21:26.055Z,16.40
2023-08-31T05:22:26.027Z,16.20
2023-08-31T05:23:26.020Z,17.50
2023-08-31T05:24:25.982Z,16.40
2023-08-31T05:25:28.469Z,16.70
2023-08-31T05:26:25.939Z,16.10
2023-08-31T05:27:26.026Z,16.20
2023-08-31T05:28:25.898Z,16.10
2023-08-31T05:29:25.890Z,18.60
2023-08-31T05:30:25.856Z,18.40
2023-08-31T05:31:25.842Z,18.00
2023-08-31T05:32:25.889Z,17.60
2023-08-31T05:33:25.777Z,18.10
2023-08-31T05:34:25.755Z,17.70
2023-08-31T05:35:25.738Z,17.70
2023-08-31T05:36:25.709Z,17.60
2023-08-31T05:37:25.688Z,17.60
2023-08-31T05:38:25.659Z,17.70
2023-08-31T05:39:25.636Z,19.50
2023-08-31T05:40:25.637Z,17.90
2023-08-31T05:41:25.600Z,17.30
2023-08-31T05:42:25.615Z,17.10
2023-08-31T05:43:25.568Z,17.40
2023-08-31T05:44:25.525Z,17.60
2023-08-31T05:45:25.508Z,18.40
2023-08-31T05:46:25.505Z,17.90
2023-08-31T05:47:25.600Z,17.60
2023-08-31T05:48:25.465Z,17.40
2023-08-31T05:49:25.412Z,18.00
2023-08-31T05:50:25.393Z,20.80
2023-08-31T05:51:25.377Z,18.00
2023-08-31T05:52:25.340Z,17.70
2023-08-31T05:53:25.322Z,19.30
2023-08-31T05:54:25.294Z,18.40
2023-08-31T05:55:25.275Z,18.60
2023-08-31T05:56:25.249Z,18.30
2023-08-31T05:57:25.233Z,18.60
2023-08-31T05:58:25.206Z,17.80
2023-08-31T05:59:25.203Z,18.40
2023-08-31T06:00:25.160Z,17.80
2023-08-31T06:01:25.241Z,19.40
2023-08-31T06:02:25.107Z,18.10
2023-08-31T06:03:25.088Z,18.90
2023-08-31T06:04:25.093Z,20.10
2023-08-31T06:05:25.051Z,20.10
2023-08-31T06:06:25.015Z,20.50
2023-08-31T06:07:24.993Z,22.00
2023-08-31T06:08:24.974Z,20.60
2023-08-31T06:09:24.951Z,20.50
2023-08-31T06:10:24.929Z,20.60
2023-08-31T06:11:24.914Z,21.90
2023-08-31T06:12:24.876Z,22.90
2023-08-31T06:13:24.862Z,22.90
2023-08-31T06:14:24.832Z,23.40
2023-08-31T06:15:24.843Z,22.90
2023-08-31T06:16:24.816Z,23.60
2023-08-31T06:17:24.796Z,24.40
2023-08-31T06:18:24.739Z,25.70
2023-08-31T06:19:24.720Z,25.70
2023-08-31T06:20:24.693Z,26.70
2023-08-31T06:21:24.672Z,27.00
2023-08-31T06:22:24.642Z,26.70
2023-08-31T06:23:24.633Z,27.80
2023-08-31T06:24:24.599Z,29.10
2023-08-31T06:25:25.721Z,30.80
2023-08-31T06:26:24.550Z,29.70
2023-08-31T06:27:24.533Z,30.00
2023-08-31T06:28:24.511Z,29.00
2023-08-31T06:29:24.489Z,31.00
2023-08-31T06:30:24.466Z,30.10
2023-08-31T06:31:24.521Z,30.30
2023-08-31T06:32:24.445Z,29.90
2023-08-31T06:33:24.425Z,30.40
2023-08-31T06:34:24.372Z,31.80
2023-08-31T06:35:24.350Z,30.50
2023-08-31T06:36:24.324Z,30.90
2023-08-31T06:37:24.305Z,31.40
2023-08-31T06:38:24.278Z,30.80
2023-08-31T06:39:24.256Z,31.40
2023-08-31T06:40:24.227Z,29.80
2023-08-31T06:41:24.211Z,30.60
2023-08-31T06:42:25.130Z,30.10
2023-08-31T06:43:24.163Z,30.00
2023-08-31T06:44:24.153Z,30.30
2023-08-31T06:45:24.122Z,30.60
2023-08-31T06:46:25.280Z,30.60
2023-08-31T06:47:24.102Z,31.20
2023-08-31T06:48:24.051Z,31.50
2023-08-31T06:49:24.024Z,31.40
2023-08-31T06:50:24.014Z,31.20
2023-08-31T06:51:25.332Z,30.60
2023-08-31T06:52:31.371Z,30.40
2023-08-31T06:53:23.938Z,30.50
2023-08-31T06:54:23.903Z,30.10
2023-08-31T06:55:23.889Z,30.90
2023-08-31T06:56:23.864Z,29.90
2023-08-31T06:57:23.849Z,30.70
2023-08-31T06:58:23.818Z,29.90
2023-08-31T06:59:23.798Z,31.30
2023-08-31T07:00:23.786Z,29.40
2023-08-31T07:01:23.794Z,29.50
2023-08-31T07:02:23.918Z,29.60
2023-08-31T07:03:27.017Z,30.60
2023-08-31T07:04:23.681Z,28.90
2023-08-31T07:05:23.646Z,30.40
2023-08-31T07:06:23.637Z,30.80
2023-08-31T07:07:23.616Z,31.10
2023-08-31T07:08:23.593Z,31.10
2023-08-31T07:09:23.573Z,31.20
2023-08-31T07:10:23.549Z,30.90
2023-08-31T07:11:23.522Z,30.40
2023-08-31T07:12:23.499Z,32.60
2023-08-31T07:13:23.488Z,30.70
2023-08-31T07:14:23.450Z,30.60
2023-08-31T07:15:23.433Z,31.00
2023-08-31T07:16:23.427Z,30.00
2023-08-31T07:17:23.376Z,30.50
2023-08-31T07:18:23.429Z,30.20
2023-08-31T07:19:23.416Z,29.90
2023-08-31T07:20:23.328Z,29.30
2023-08-31T07:21:23.284Z,29.90
2023-08-31T07:22:23.265Z,29.90
2023-08-31T07:23:23.246Z,29.00
2023-08-31T07:24:23.242Z,28.80
2023-08-31T07:25:23.205Z,29.90
2023-08-31T07:26:23.184Z,29.00
2023-08-31T07:27:23.153Z,28.60
2023-08-31T07:28:23.132Z,29.90
2023-08-31T07:29:23.109Z,30.00
2023-08-31T07:30:23.089Z,30.00
2023-08-31T07:31:23.089Z,28.80
2023-08-31T07:32:23.034Z,29.00
2023-08-31T07:33:30.966Z,29.50
2023-08-31T07:34:23.002Z,28.60
2023-08-31T07:35:23.001Z,30.10
2023-08-31T07:36:22.950Z,29.30
2023-08-31T07:37:22.921Z,30.00
2023-08-31T07:38:22.918Z,28.70
2023-08-31T07:39:22.868Z,28.60
2023-08-31T07:40:22.854Z,28.90
2023-08-31T07:41:22.836Z,28.90
2023-08-31T07:42:22.809Z,27.20
2023-08-31T07:43:22.782Z,29.60
2023-08-31T07:44:22.766Z,26.50
2023-08-31T07:45:22.741Z,27.10
2023-08-31T07:46:22.762Z,26.80
2023-08-31T07:47:22.690Z,25.10
2023-08-31T07:48:22.676Z,25.50
2023-08-31T07:49:22.658Z,24.60
2023-08-31T07:50:22.632Z,23.40
2023-08-31T07:51:22.631Z,23.90
2023-08-31T07:52:22.583Z,23.90
2023-08-31T07:53:22.552Z,24.10
2023-08-31T07:54:22.543Z,23.90
2023-08-31T07:55:22.522Z,24.90
2023-08-31T07:56:22.494Z,24.00
2023-08-31T07:57:22.469Z,24.30
2023-08-31T07:58:22.448Z,23.60
2023-08-31T07:59:22.424Z,23.30
2023-08-31T08:00:22.412Z,23.90
2023-08-31T08:01:22.469Z,24.50
2023-08-31T08:02:22.355Z,21.70
2023-08-31T08:03:22.397Z,22.10
2023-08-31T08:04:22.310Z,23.00
2023-08-31T08:05:22.755Z,22.10
2023-08-31T08:06:22.266Z,21.80
2023-08-31T08:07:22.273Z,19.70
2023-08-31T08:08:22.226Z,19.90
2023-08-31T08:09:22.190Z,18.70
2023-08-31T08:10:22.177Z,19.30
2023-08-31T08:11:22.145Z,18.50
2023-08-31T08:12:22.124Z,20.20
2023-08-31T08:13:22.112Z,19.20
2023-08-31T08:14:22.079Z,18.80
2023-08-31T08:15:22.053Z,18.30
2023-08-31T08:16:22.065Z,16.60
2023-08-31T08:17:22.014Z,17.30
2023-08-31T08:18:21.994Z,16.10
2023-08-31T08:19:21.976Z,16.20
2023-08-31T08:20:21.975Z,15.90
2023-08-31T08:21:21.927Z,14.90
2023-08-31T08:22:21.912Z,13.90
2023-08-31T08:23:21.895Z,14.10
2023-08-31T08:24:21.858Z,13.50
2023-08-31T08:25:21.830Z,12.50
2023-08-31T08:26:21.811Z,12.40
2023-08-31T08:27:21.785Z,13.50
2023-08-31T08:28:21.765Z,12.30
2023-08-31T08:29:21.741Z,12.20
2023-08-31T08:30:21.760Z,12.40
2023-08-31T08:31:23.275Z,12.00
2023-08-31T08:32:21.679Z,10.90
2023-08-31T08:33:21.656Z,11.60
2023-08-31T08:34:21.634Z,10.80
2023-08-31T08:35:21.609Z,11.10
2023-08-31T08:36:21.586Z,9.70
2023-08-31T08:37:21.564Z,9.90
2023-08-31T08:38:21.555Z,9.80
2023-08-31T08:39:21.555Z,11.10
2023-08-31T08:40:21.520Z,9.80
2023-08-31T08:41:21.522Z,9.50
2023-08-31T08:42:21.454Z,9.60
2023-08-31T08:43:21.438Z,10.80
2023-08-31T08:44:21.420Z,9.10
2023-08-31T08:45:21.393Z,9.00
2023-08-31T08:46:21.408Z,8.80
2023-08-31T08:47:21.350Z,11.60
2023-08-31T08:48:21.321Z,10.30
2023-08-31T08:49:21.300Z,8.70
2023-08-31T08:50:21.276Z,9.70
2023-08-31T08:51:21.251Z,9.70
2023-08-31T08:52:21.232Z,8.90
2023-08-31T08:53:21.206Z,10.40
2023-08-31T08:54:21.189Z,9.60
2023-08-31T08:55:21.274Z,9.00
2023-08-31T08:56:21.137Z,7.90
2023-08-31T08:57:21.115Z,9.30
2023-08-31T08:58:21.114Z,9.20
2023-08-31T08:59:21.070Z,8.40
2023-08-31T09:00:21.051Z,7.60
2023-08-31T09:01:21.050Z,8.60
2023-08-31T09:02:21.010Z,7.80
2023-08-31T09:03:20.990Z,7.80
2023-08-31T09:04:20.970Z,8.10
2023-08-31T09:05:20.962Z,8.90
2023-08-31T09:06:20.918Z,8.60
2023-08-31T09:07:20.891Z,9.40
2023-08-31T09:08:20.880Z,8.20
2023-08-31T09:09:20.854Z,8.50
2023-08-31T09:10:20.832Z,9.00
2023-08-31T09:11:20.841Z,8.30
2023-08-31T09:12:20.801Z,7.70
2023-08-31T09:13:21.081Z,7.00
2023-08-31T09:14:20.736Z,8.30
2023-08-31T09:15:20.722Z,8.20
2023-08-31T09:16:20.754Z,9.60
2023-08-31T09:17:20.740Z,7.90
2023-08-31T09:18:20.694Z,7.50
2023-08-31T09:19:20.679Z,8.40
2023-08-31T09:20:20.623Z,9.00
2023-08-31T09:21:20.584Z,7.40
2023-08-31T09:22:20.570Z,7.30
2023-08-31T09:23:20.536Z,8.60
2023-08-31T09:24:20.529Z,7.30
2023-08-31T09:25:20.491Z,7.90
2023-08-31T09:26:20.475Z,7.60
2023-08-31T09:27:20.473Z,8.70
2023-08-31T09:28:20.434Z,8.00
2023-08-31T09:29:20.408Z,7.40
2023-08-31T09:30:20.389Z,7.70
2023-08-31T09:31:20.393Z,7.50
2023-08-31T09:32:20.341Z,8.00
2023-08-31T09:33:20.319Z,5.70
2023-08-31T09:34:20.300Z,5.80
2023-08-31T09:35:22.642Z,8.60
2023-08-31T09:36:20.253Z,6.70
2023-08-31T09:37:20.231Z,7.00
2023-08-31T09:38:20.208Z,5.80
2023-08-31T09:39:20.188Z,6.60
2023-08-31T09:40:20.166Z,9.00
2023-08-31T09:41:20.144Z,6.60
2023-08-31T09:42:20.125Z,6.90
2023-08-31T09:43:20.267Z,6.70
2023-08-31T09:44:20.085Z,6.10
2023-08-31T09:45:21.473Z,5.90
2023-08-31T09:46:20.086Z,7.70
2023-08-31T09:47:20.019Z,5.50
2023-08-31T09:48:20.077Z,6.50
2023-08-31T09:49:19.981Z,5.60
2023-08-31T09:50:19.954Z,5.40
2023-08-31T09:51:19.924Z,5.90
2023-08-31T09:52:19.920Z,7.10
2023-08-31T09:53:19.885Z,6.20
2023-08-31T09:54:19.861Z,7.30
2023-08-31T09:55:19.846Z,7.50
2023-08-31T09:56:19.827Z,5.40
2023-08-31T09:57:22.582Z,6.20
2023-08-31T09:58:19.843Z,7.00
2023-08-31T09:59:19.862Z,7.90
2023-08-31T10:00:19.744Z,5.70
2023-08-31T10:01:28.700Z,6.20
2023-08-31T10:02:19.739Z,7.10
2023-08-31T10:03:20.407Z,5.50
2023-08-31T10:04:19.656Z,5.70
2023-08-31T10:05:19.631Z,6.50
2023-08-31T10:06:19.615Z,6.50
2023-08-31T10:07:19.610Z,5.80
2023-08-31T10:08:19.564Z,7.20
2023-08-31T10:09:19.540Z,6.80
2023-08-31T10:10:19.520Z,7.80
2023-08-31T10:11:19.510Z,6.20
2023-08-31T10:12:19.477Z,5.40
2023-08-31T10:13:19.466Z,5.60
2023-08-31T10:14:19.457Z,6.30
2023-08-31T10:15:19.521Z,6.60
2023-08-31T10:16:19.436Z,6.30
2023-08-31T10:17:19.366Z,6.90
2023-08-31T10:18:19.350Z,6.20
2023-08-31T10:19:19.321Z,4.60
2023-08-31T10:20:19.308Z,6.20
2023-08-31T10:21:19.309Z,6.60
2023-08-31T10:22:19.271Z,5.70
2023-08-31T10:23:19.239Z,4.70
2023-08-31T10:24:19.237Z,5.80
2023-08-31T10:25:19.199Z,6.20
2023-08-31T10:26:19.183Z,5.50
2023-08-31T10:27:19.159Z,5.50
2023-08-31T10:28:19.141Z,5.40
2023-08-31T10:29:19.115Z,6.70
2023-08-31T10:30:19.087Z,6.00
2023-08-31T10:31:19.237Z,5.00
2023-08-31T10:32:19.055Z,5.20
2023-08-31T10:33:19.060Z,5.70
2023-08-31T10:34:19.008Z,5.40
2023-08-31T10:35:19.073Z,6.30
2023-08-31T10:36:18.992Z,4.80
2023-08-31T10:37:18.953Z,5.00
2023-08-31T10:38:18.943Z,5.10
2023-08-31T10:39:18.902Z,5.30
2023-08-31T10:40:18.888Z,6.10
2023-08-31T10:41:18.855Z,4.70
2023-08-31T10:42:18.835Z,6.40
2023-08-31T10:43:18.818Z,5.10
2023-08-31T10:44:18.797Z,5.30
2023-08-31T10:45:18.779Z,5.10
2023-08-31T10:46:18.772Z,5.80
2023-08-31T10:47:18.752Z,4.20
2023-08-31T10:48:18.757Z,4.90
2023-08-31T10:49:18.701Z,6.10
2023-08-31T10:50:18.676Z,4.80
2023-08-31T10:51:18.641Z,5.40
2023-08-31T10:52:28.471Z,5.40
2023-08-31T10:53:18.617Z,4.50
2023-08-31T10:54:18.589Z,5.00
2023-08-31T10:55:18.570Z,5.20
2023-08-31T10:56:18.536Z,4.40
2023-08-31T10:57:18.519Z,6.10
2023-08-31T10:58:18.515Z,5.90
2023-08-31T10:59:18.479Z,5.00
2023-08-31T11:00:18.455Z,4.60
2023-08-31T11:01:18.444Z,6.70
2023-08-31T11:02:18.421Z,4.50
2023-08-31T11:03:18.574Z,5.60
2023-08-31T11:04:18.465Z,5.60
2023-08-31T11:05:18.343Z,4.10
2023-08-31T11:06:18.326Z,6.80
2023-08-31T11:07:18.350Z,4.60
2023-08-31T11:08:18.281Z,5.90
2023-08-31T11:09:18.257Z,6.40
2023-08-31T11:10:18.286Z,6.00
2023-08-31T11:11:18.218Z,5.40
2023-08-31T11:12:18.198Z,4.90
2023-08-31T11:13:18.176Z,5.30
2023-08-31T11:14:18.187Z,4.40
2023-08-31T11:15:18.211Z,6.80
2023-08-31T11:16:18.174Z,5.80
2023-08-31T11:17:18.089Z,5.40
2023-08-31T11:18:18.145Z,6.30
2023-08-31T11:19:18.079Z,4.70
2023-08-31T11:20:18.685Z,6.20
2023-08-31T11:21:18.010Z,5.20
2023-08-31T11:22:17.981Z,5.00
2023-08-31T11:23:18.008Z,5.00
2023-08-31T11:24:17.943Z,6.30
2023-08-31T11:25:17.952Z,5.30
2023-08-31T11:26:17.903Z,5.60
2023-08-31T11:27:17.887Z,6.30
2023-08-31T11:28:17.847Z,6.00
2023-08-31T11:29:17.835Z,5.40
2023-08-31T11:30:17.799Z,6.40
2023-08-31T11:31:17.817Z,5.00
2023-08-31T11:32:17.768Z,6.20
2023-08-31T11:33:17.751Z,4.70
2023-08-31T11:34:17.727Z,6.10
2023-08-31T11:35:17.838Z,6.20
2023-08-31T11:36:17.680Z,6.70
2023-08-31T11:37:17.663Z,5.20
2023-08-31T11:38:17.637Z,5.40
2023-08-31T11:39:17.619Z,5.00
2023-08-31T11:40:17.637Z,5.20
2023-08-31T11:41:17.582Z,4.70
2023-08-31T11:42:17.553Z,5.10
2023-08-31T11:43:17.539Z,4.20
2023-08-31T11:44:17.557Z,5.20
2023-08-31T11:45:17.525Z,5.00
2023-08-31T11:46:17.506Z,5.70
2023-08-31T11:47:17.454Z,5.70
2023-08-31T11:48:17.497Z,6.40
2023-08-31T11:49:17.407Z,4.70
2023-08-31T11:50:17.380Z,5.60
2023-08-31T11:51:17.398Z,7.00
2023-08-31T11:52:17.343Z,7.00
2023-08-31T11:53:17.321Z,5.50
2023-08-31T11:54:17.298Z,5.70
2023-08-31T11:55:17.355Z,4.90
2023-08-31T11:56:17.260Z,4.90
2023-08-31T11:57:17.239Z,5.30
2023-08-31T11:58:17.227Z,5.40
2023-08-31T11:59:17.192Z,8.60
2023-08-31T12:00:17.165Z,6.00
2023-08-31T12:01:17.193Z,4.50
2023-08-31T12:02:17.131Z,6.50
2023-08-31T12:03:17.548Z,7.00
2023-08-31T12:04:17.196Z,5.70
2023-08-31T12:05:17.074Z,6.50
2023-08-31T12:06:17.042Z,6.00
2023-08-31T12:07:17.048Z,5.90
2023-08-31T12:08:17.071Z,5.30
2023-08-31T12:09:16.986Z,5.30
2023-08-31T12:10:16.970Z,5.50
2023-08-31T12:11:16.940Z,5.00
2023-08-31T12:12:16.950Z,6.50
2023-08-31T12:13:17.188Z,4.70
2023-08-31T12:14:16.877Z,4.90
2023-08-31T12:15:16.862Z,6.50
2023-08-31T12:16:16.855Z,6.50
2023-08-31T12:17:16.818Z,6.00
2023-08-31T12:18:16.798Z,5.00
2023-08-31T12:19:16.777Z,6.00
2023-08-31T12:20:16.749Z,5.60
2023-08-31T12:21:16.736Z,6.00
2023-08-31T12:22:16.709Z,5.60
2023-08-31T12:23:16.776Z,6.00
2023-08-31T12:24:16.675Z,6.00
2023-08-31T12:25:16.654Z,6.40
2023-08-31T12:26:16.627Z,6.30
2023-08-31T12:27:16.608Z,7.80
2023-08-31T12:28:16.584Z,6.50
2023-08-31T12:29:16.566Z,6.10
2023-08-31T12:30:16.550Z,6.40
2023-08-31T12:31:16.560Z,5.00
2023-08-31T12:32:16.500Z,6.30
2023-08-31T12:33:16.941Z,6.00
2023-08-31T12:34:16.457Z,5.20
2023-08-31T12:35:16.451Z,5.50
2023-08-31T12:36:16.416Z,5.60
2023-08-31T12:37:16.418Z,6.90
2023-08-31T12:38:16.379Z,5.70
2023-08-31T12:39:16.381Z,6.60
2023-08-31T12:40:16.337Z,7.40
2023-08-31T12:41:16.319Z,7.90
2023-08-31T12:42:23.076Z,6.70
2023-08-31T12:43:16.616Z,5.20
2023-08-31T12:44:16.290Z,7.20
2023-08-31T12:45:16.238Z,7.80
2023-08-31T12:46:16.236Z,8.00
2023-08-31T12:47:16.225Z,6.10
2023-08-31T12:48:16.231Z,6.60
2023-08-31T12:49:16.192Z,7.80
2023-08-31T12:50:16.131Z,5.90
2023-08-31T12:51:16.114Z,6.00
2023-08-31T12:52:16.087Z,6.00
2023-08-31T12:53:16.373Z,7.40
2023-08-31T12:54:16.043Z,7.60
2023-08-31T12:55:16.135Z,6.50
2023-08-31T12:56:15.996Z,6.20
2023-08-31T12:57:15.970Z,6.20
2023-08-31T12:58:15.954Z,6.30
2023-08-31T12:59:15.931Z,8.00
2023-08-31T13:00:15.904Z,7.80
2023-08-31T13:01:15.903Z,6.90
2023-08-31T13:02:15.925Z,7.20
2023-08-31T13:03:16.108Z,6.80
2023-08-31T13:04:15.828Z,8.90
2023-08-31T13:05:15.809Z,8.00
2023-08-31T13:06:15.781Z,6.90
2023-08-31T13:07:15.761Z,7.10
2023-08-31T13:08:16.051Z,7.90
2023-08-31T13:09:15.714Z,7.30